createdAt,value
2017-12-17T00:00:42.021Z,99.90
2017-12-17T00:03:09.577Z,99.90
2017-12-17T00:05:37.119Z,99.90
2017-12-17T00:08:04.676Z,99.90
2017-12-17T00:10:32.209Z,99.90
2017-12-17T00:13:00.525Z,99.90
2017-12-17T00:15:28.829Z,99.90
2017-12-17T00:17:56.377Z,99.90
2017-12-17T00:20:24.683Z,99.90
2017-12-17T00:22:52.247Z,99.90
2017-12-17T00:25:19.781Z,99.90
2017-12-17T00:27:47.311Z,99.90
2017-12-17T00:30:14.865Z,99.90
2017-12-17T00:32:42.426Z,99.90
2017-12-17T00:35:09.969Z,99.90
2017-12-17T00:37:37.509Z,99.90
2017-12-17T00:40:05.103Z,99.90
2017-12-17T00:42:32.635Z,99.90
2017-12-17T00:45:00.181Z,99.90
2017-12-17T00:47:27.714Z,99.90
2017-12-17T00:49:55.284Z,99.90
2017-12-17T00:52:22.888Z,99.90
2017-12-17T00:54:50.454Z,99.90
2017-12-17T00:57:18.040Z,99.90
2017-12-17T00:59:46.342Z,99.90
2017-12-17T01:02:13.874Z,99.90
2017-12-17T01:04:42.197Z,99.90
2017-12-17T01:07:09.748Z,99.90
2017-12-17T01:09:37.292Z,99.90
2017-12-17T01:12:04.845Z,99.90
2017-12-17T01:14:33.147Z,99.90
2017-12-17T01:17:00.690Z,99.90
2017-12-17T01:19:28.275Z,99.90
2017-12-17T01:21:55.803Z,99.90
2017-12-17T01:24:23.348Z,99.90
2017-12-17T01:26:51.653Z,99.90
2017-12-17T01:29:19.220Z,99.90
2017-12-17T01:31:46.741Z,99.90
2017-12-17T01:34:15.042Z,99.90
2017-12-17T01:36:42.594Z,99.90
2017-12-17T01:39:10.919Z,99.90
2017-12-17T01:41:38.460Z,99.90
2017-12-17T01:44:06.013Z,99.90
2017-12-17T01:46:33.574Z,99.90
2017-12-17T01:49:01.124Z,99.90
2017-12-17T01:51:28.663Z,99.90
2017-12-17T01:53:57.005Z,99.90
2017-12-17T01:56:24.527Z,99.90
2017-12-17T01:58:52.081Z,99.90
2017-12-17T02:01:19.616Z,99.90
2017-12-17T02:03:47.952Z,99.90
2017-12-17T02:06:16.436Z,99.90
2017-12-17T02:08:43.952Z,99.90
2017-12-17T02:11:11.496Z,99.90
2017-12-17T02:13:39.060Z,99.90
2017-12-17T02:16:06.616Z,99.90
2017-12-17T02:18:34.166Z,99.90
2017-12-17T02:21:01.682Z,99.90
2017-12-17T02:23:29.969Z,99.90
2017-12-17T02:25:57.508Z,99.90
2017-12-17T02:28:25.805Z,99.90
2017-12-17T02:30:53.355Z,99.90
2017-12-17T02:33:21.658Z,99.90
2017-12-17T02:35:49.234Z,99.90
2017-12-17T02:38:16.797Z,99.90
2017-12-17T02:40:44.350Z,99.90
2017-12-17T02:43:11.898Z,99.90
2017-12-17T02:45:39.467Z,99.90
2017-12-17T02:48:07.010Z,99.90
2017-12-17T02:50:34.549Z,99.90
2017-12-17T02:53:02.861Z,99.90
2017-12-17T02:55:30.388Z,99.90
2017-12-17T02:57:58.717Z,99.90
2017-12-17T03:00:26.237Z,99.90
2017-12-17T03:02:53.793Z,99.90
2017-12-17T03:05:21.353Z,99.90
2017-12-17T03:07:48.904Z,99.90
2017-12-17T03:10:17.220Z,99.90
2017-12-17T03:12:44.745Z,99.90
2017-12-17T03:15:12.292Z,99.90
2017-12-17T03:17:40.594Z,99.90
2017-12-17T03:20:08.145Z,99.90
2017-12-17T03:22:35.683Z,99.90
2017-12-17T03:25:04.016Z,99.90
2017-12-17T03:27:31.546Z,99.90
2017-12-17T03:29:59.101Z,99.90
2017-12-17T03:32:26.644Z,99.90
2017-12-17T03:34:54.972Z,99.90
2017-12-17T03:37:22.520Z,99.90
2017-12-17T03:39:50.092Z,99.90
2017-12-17T03:42:17.638Z,99.90
2017-12-17T03:44:45.190Z,99.90
2017-12-17T03:47:12.720Z,99.90
2017-12-17T03:49:41.294Z,99.90
2017-12-17T03:52:08.821Z,99.90
2017-12-17T03:54:36.350Z,99.90
2017-12-17T03:57:03.921Z,99.90
2017-12-17T03:59:31.442Z,99.90
2017-12-17T04:01:59.757Z,99.90
2017-12-17T04:04:27.301Z,99.90
2017-12-17T04:06:54.836Z,99.90
2017-12-17T04:09:23.124Z,99.90
2017-12-17T04:11:51.474Z,99.90
2017-12-17T04:14:18.981Z,99.90
2017-12-17T04:16:46.532Z,99.90
2017-12-17T04:19:14.057Z,99.90
2017-12-17T04:21:41.594Z,99.90
2017-12-17T04:24:09.119Z,99.90
2017-12-17T04:26:36.655Z,99.90
2017-12-17T04:29:04.964Z,99.90
2017-12-17T04:31:32.510Z,99.90
2017-12-17T04:34:00.049Z,99.90
2017-12-17T04:36:28.357Z,99.90
2017-12-17T04:38:55.868Z,99.90
2017-12-17T04:41:23.446Z,99.90
2017-12-17T04:43:51.751Z,99.90
2017-12-17T04:46:19.297Z,99.90
2017-12-17T04:48:47.630Z,99.90
2017-12-17T04:51:15.158Z,99.90
2017-12-17T04:53:42.698Z,99.90
2017-12-17T04:56:10.226Z,99.90
2017-12-17T04:58:37.940Z,99.90
2017-12-17T05:01:05.499Z,99.90
2017-12-17T05:03:33.089Z,99.90
2017-12-17T05:06:00.723Z,99.90
2017-12-17T05:08:28.265Z,99.90
2017-12-17T05:10:55.846Z,99.90
2017-12-17T05:13:23.360Z,99.90
2017-12-17T05:15:51.665Z,99.90
2017-12-17T05:18:19.223Z,99.90
2017-12-17T05:20:46.813Z,99.90
2017-12-17T05:23:15.056Z,99.90
2017-12-17T05:25:42.597Z,99.90
2017-12-17T05:28:10.891Z,99.90
2017-12-17T05:30:38.444Z,99.90
2017-12-17T05:33:06.737Z,99.90
2017-12-17T05:35:34.297Z,99.90
2017-12-17T05:38:01.838Z,99.90
2017-12-17T05:40:30.157Z,99.90
2017-12-17T05:42:57.682Z,99.90
2017-12-17T05:45:25.242Z,99.90
2017-12-17T05:47:52.778Z,99.90
2017-12-17T05:50:20.325Z,99.90
2017-12-17T05:52:47.853Z,99.90
2017-12-17T05:55:15.425Z,99.90
2017-12-17T05:57:42.949Z,99.90
2017-12-17T06:00:10.485Z,99.90
2017-12-17T06:02:38.769Z,99.90
2017-12-17T06:05:07.066Z,99.90
2017-12-17T06:07:34.636Z,99.90
2017-12-17T06:10:02.184Z,99.90
2017-12-17T06:12:29.724Z,99.90
2017-12-17T06:14:57.289Z,99.90
2017-12-17T06:17:25.588Z,99.90
2017-12-17T06:19:53.137Z,99.90
2017-12-17T06:22:21.439Z,99.90
2017-12-17T06:24:48.976Z,99.90
2017-12-17T06:27:17.288Z,99.90
2017-12-17T06:29:44.826Z,99.90
2017-12-17T06:32:12.369Z,99.90
2017-12-17T06:34:40.666Z,99.90
2017-12-17T06:37:08.225Z,99.90
2017-12-17T06:39:35.761Z,99.90
2017-12-17T06:42:04.090Z,99.90
2017-12-17T06:44:31.617Z,99.90
2017-12-17T06:46:59.169Z,99.90
2017-12-17T06:49:26.712Z,99.90
2017-12-17T06:51:55.026Z,99.90
2017-12-17T06:54:22.545Z,99.90
2017-12-17T06:56:50.869Z,99.90
2017-12-17T06:59:18.402Z,99.90
2017-12-17T07:01:45.953Z,99.90
2017-12-17T07:04:14.273Z,99.90
2017-12-17T07:06:41.833Z,99.90
2017-12-17T07:09:09.482Z,99.90
2017-12-17T07:11:37.033Z,99.90
2017-12-17T07:14:04.590Z,99.90
2017-12-17T07:16:32.134Z,99.90
2017-12-17T07:19:00.449Z,99.90
2017-12-17T07:21:27.998Z,99.90
2017-12-17T07:23:55.550Z,99.90
2017-12-17T07:26:23.096Z,99.90
2017-12-17T07:28:50.628Z,99.90
2017-12-17T07:31:18.173Z,99.90
2017-12-17T07:33:45.712Z,99.90
2017-12-17T07:36:13.242Z,99.90
2017-12-17T07:38:40.776Z,99.90
2017-12-17T07:41:09.111Z,99.90
2017-12-17T07:43:36.653Z,99.90
2017-12-17T07:46:04.216Z,99.90
2017-12-17T07:48:31.744Z,99.90
2017-12-17T07:51:00.072Z,99.90
2017-12-17T07:53:27.597Z,99.90
2017-12-17T07:55:55.140Z,99.90
2017-12-17T07:58:23.477Z,99.90
2017-12-17T08:00:50.997Z,99.90
2017-12-17T08:03:18.568Z,99.90
2017-12-17T08:05:46.104Z,99.90
2017-12-17T08:08:14.545Z,99.90
2017-12-17T08:10:42.078Z,99.90
2017-12-17T08:13:09.637Z,99.90
2017-12-17T08:15:37.181Z,99.90
2017-12-17T08:18:04.737Z,99.90
2017-12-17T08:20:32.284Z,99.90
2017-12-17T08:22:59.873Z,99.90
2017-12-17T08:25:27.396Z,99.90
2017-12-17T08:27:54.949Z,99.90
2017-12-17T08:30:23.274Z,99.90
2017-12-17T08:32:50.849Z,99.90
2017-12-17T08:35:18.401Z,99.90
2017-12-17T08:37:45.925Z,99.90
2017-12-17T08:40:13.495Z,99.90
2017-12-17T08:42:41.016Z,99.90
2017-12-17T08:45:09.343Z,99.90
2017-12-17T08:47:36.886Z,99.90
2017-12-17T08:50:04.445Z,99.90
2017-12-17T08:52:31.976Z,99.90
2017-12-17T08:55:00.297Z,99.90
2017-12-17T08:57:27.836Z,99.90
2017-12-17T08:59:55.394Z,99.90
2017-12-17T09:02:23.053Z,99.90
2017-12-17T09:04:50.611Z,99.90
2017-12-17T09:07:18.141Z,99.90
2017-12-17T09:09:47.186Z,99.90
2017-12-17T09:12:15.689Z,99.90
2017-12-17T09:14:44.033Z,99.90
2017-12-17T09:17:11.709Z,99.90
2017-12-17T09:19:39.253Z,99.90
2017-12-17T09:22:08.055Z,99.90
2017-12-17T09:24:35.627Z,99.90
2017-12-17T09:27:03.165Z,99.90
2017-12-17T09:29:30.701Z,99.90
2017-12-17T09:31:59.021Z,99.90
2017-12-17T09:34:26.553Z,99.90
2017-12-17T09:36:54.115Z,99.90
2017-12-17T09:39:21.673Z,99.90
2017-12-17T09:41:51.153Z,99.90
2017-12-17T09:44:19.489Z,99.90
2017-12-17T09:46:47.029Z,99.90
2017-12-17T09:49:14.557Z,99.90
2017-12-17T09:51:42.102Z,99.90
2017-12-17T09:54:09.661Z,99.90
2017-12-17T09:56:37.200Z,99.90
2017-12-17T09:59:06.082Z,99.90
2017-12-17T10:01:34.390Z,99.90
2017-12-17T10:04:01.958Z,99.90
2017-12-17T10:06:29.509Z,99.90
2017-12-17T10:08:57.059Z,99.90
2017-12-17T10:11:25.464Z,99.90
2017-12-17T10:13:53.020Z,99.90
2017-12-17T10:16:20.557Z,99.90
2017-12-17T10:18:48.841Z,99.90
2017-12-17T10:21:16.411Z,99.90
2017-12-17T10:23:45.452Z,99.90
2017-12-17T10:26:13.011Z,99.90
2017-12-17T10:28:40.542Z,99.90
2017-12-17T10:31:08.872Z,99.90
2017-12-17T10:33:36.397Z,99.90
2017-12-17T10:36:04.068Z,99.90
2017-12-17T10:38:31.614Z,99.90
2017-12-17T10:40:59.162Z,99.90
2017-12-17T10:43:27.450Z,99.90
2017-12-17T10:45:54.998Z,99.90
2017-12-17T10:48:22.524Z,99.90
2017-12-17T10:50:50.114Z,99.90
2017-12-17T10:53:17.641Z,99.90
2017-12-17T10:55:45.185Z,99.90
2017-12-17T10:58:12.765Z,99.90
2017-12-17T11:00:41.069Z,99.90
2017-12-17T11:03:08.616Z,99.90
2017-12-17T11:05:36.916Z,99.90
2017-12-17T11:08:05.950Z,99.90
2017-12-17T11:10:33.484Z,99.90
2017-12-17T11:13:01.046Z,99.40
2017-12-17T11:15:28.595Z,78.50
2017-12-17T11:17:56.139Z,69.00
2017-12-17T11:20:23.694Z,67.40
2017-12-17T11:22:51.290Z,72.20
2017-12-17T11:25:19.624Z,99.90
2017-12-17T11:27:47.254Z,99.90
2017-12-17T11:30:14.783Z,99.90
2017-12-17T11:32:42.340Z,78.60
2017-12-17T11:35:09.901Z,66.40
2017-12-17T11:37:37.421Z,73.30
2017-12-17T11:40:04.971Z,91.80
2017-12-17T11:42:32.533Z,99.90
2017-12-17T11:45:00.080Z,99.90
2017-12-17T11:47:27.608Z,99.90
2017-12-17T11:49:55.933Z,99.90
2017-12-17T11:52:23.464Z,99.90
2017-12-17T11:54:51.039Z,99.90
2017-12-17T11:57:18.570Z,99.90
2017-12-17T11:59:46.885Z,99.90
2017-12-17T12:02:14.517Z,99.90
2017-12-17T12:04:42.944Z,99.90
2017-12-17T12:07:10.577Z,99.90
2017-12-17T12:09:38.112Z,99.90
2017-12-17T12:12:06.451Z,99.90
2017-12-17T12:14:34.003Z,99.90
2017-12-17T12:17:01.544Z,99.90
2017-12-17T12:19:29.084Z,99.90
2017-12-17T12:21:56.641Z,99.90
2017-12-17T12:24:24.940Z,99.90
2017-12-17T12:26:52.489Z,99.90
2017-12-17T12:29:20.025Z,99.90
2017-12-17T12:31:48.357Z,99.90
2017-12-17T12:34:15.913Z,99.90
2017-12-17T12:36:43.467Z,99.90
2017-12-17T12:39:11.051Z,99.90
2017-12-17T12:41:38.591Z,99.90
2017-12-17T12:44:06.146Z,99.90
2017-12-17T12:46:33.670Z,99.90
2017-12-17T12:49:01.246Z,99.90
2017-12-17T12:51:28.784Z,99.90
2017-12-17T12:53:57.108Z,99.90
2017-12-17T12:56:24.658Z,99.90
2017-12-17T12:58:52.298Z,99.90
2017-12-17T13:01:19.865Z,99.90
2017-12-17T13:03:47.393Z,99.90
2017-12-17T13:06:15.707Z,99.90
2017-12-17T13:08:43.262Z,99.90
2017-12-17T13:11:10.821Z,99.90
2017-12-17T13:13:38.357Z,99.90
2017-12-17T13:16:06.657Z,99.90
2017-12-17T13:18:34.256Z,99.90
2017-12-17T13:21:01.778Z,99.90
2017-12-17T13:23:29.342Z,99.90
2017-12-17T13:25:56.883Z,99.90
2017-12-17T13:28:25.189Z,99.90
2017-12-17T13:30:52.714Z,99.90
2017-12-17T13:33:21.041Z,99.90
2017-12-17T13:35:48.628Z,99.90
2017-12-17T13:38:16.168Z,99.90
2017-12-17T13:40:43.701Z,99.90
2017-12-17T13:43:11.262Z,99.90
2017-12-17T13:45:38.802Z,99.90
2017-12-17T13:48:06.353Z,99.90
2017-12-17T13:50:34.673Z,99.90
2017-12-17T13:53:02.249Z,99.90
2017-12-17T13:55:29.793Z,99.90
2017-12-17T13:57:57.349Z,99.90
2017-12-17T14:00:24.871Z,99.90
2017-12-17T14:02:52.560Z,99.90
2017-12-17T14:05:20.137Z,99.90
2017-12-17T14:07:47.677Z,99.90
2017-12-17T14:10:15.233Z,99.90
2017-12-17T14:12:42.769Z,99.90
2017-12-17T14:15:11.092Z,99.90
2017-12-17T14:17:38.617Z,99.90
2017-12-17T14:20:06.162Z,99.90
2017-12-17T14:22:34.513Z,99.90
2017-12-17T14:25:02.082Z,99.90
2017-12-17T14:27:30.387Z,99.90
2017-12-17T14:29:57.932Z,99.90
2017-12-17T14:32:26.228Z,99.90
2017-12-17T14:34:53.797Z,99.90
2017-12-17T14:37:21.328Z,99.90
2017-12-17T14:39:48.858Z,99.90
2017-12-17T14:42:16.413Z,99.90
2017-12-17T14:44:43.956Z,99.90
2017-12-17T14:47:11.513Z,99.90
2017-12-17T14:49:39.044Z,99.90
2017-12-17T14:52:06.632Z,99.90
2017-12-17T14:54:34.180Z,99.90
2017-12-17T14:57:01.714Z,99.90
2017-12-17T14:59:29.278Z,99.90
2017-12-17T15:01:56.808Z,99.90
2017-12-17T15:04:24.402Z,99.90
2017-12-17T15:06:51.983Z,99.90
2017-12-17T15:09:19.535Z,99.90
2017-12-17T15:11:47.093Z,99.90
2017-12-17T15:14:14.662Z,99.90
2017-12-17T15:16:42.225Z,99.90
2017-12-17T15:19:09.797Z,99.90
2017-12-17T15:21:37.339Z,99.90
2017-12-17T15:24:04.875Z,99.90
2017-12-17T15:26:32.420Z,99.90
2017-12-17T15:29:00.720Z,99.90
2017-12-17T15:31:28.280Z,99.90
2017-12-17T15:33:55.832Z,99.90
2017-12-17T15:36:23.399Z,99.90
2017-12-17T15:38:50.928Z,99.90
2017-12-17T15:41:19.224Z,99.90
2017-12-17T15:43:47.574Z,99.90
2017-12-17T15:46:15.123Z,99.90
2017-12-17T15:48:42.676Z,99.90
2017-12-17T15:51:10.205Z,99.90
2017-12-17T15:53:37.761Z,99.90
2017-12-17T15:56:05.287Z,99.90
2017-12-17T15:58:33.624Z,99.90
2017-12-17T16:01:01.184Z,99.90
2017-12-17T16:03:28.779Z,99.90
2017-12-17T16:05:57.089Z,99.90
2017-12-17T16:08:24.606Z,99.90
2017-12-17T16:10:52.159Z,99.90
2017-12-17T16:13:19.688Z,99.90
2017-12-17T16:15:47.310Z,99.90
2017-12-17T16:18:15.617Z,99.90
2017-12-17T16:20:43.163Z,99.90
2017-12-17T16:23:10.738Z,99.90
2017-12-17T16:25:38.278Z,99.90
2017-12-17T16:28:05.846Z,99.90
2017-12-17T16:30:33.382Z,99.90
2017-12-17T16:33:01.685Z,99.90
2017-12-17T16:35:29.225Z,99.90
2017-12-17T16:37:56.757Z,99.90
2017-12-17T16:40:24.284Z,99.90
2017-12-17T16:42:51.846Z,99.90
2017-12-17T16:45:19.385Z,99.90
2017-12-17T16:47:46.951Z,99.90
2017-12-17T16:50:14.472Z,99.90
2017-12-17T16:52:44.386Z,99.90
2017-12-17T16:55:12.701Z,99.90
2017-12-17T16:57:40.253Z,99.90
2017-12-17T17:00:07.901Z,99.90
2017-12-17T17:02:35.469Z,99.90
2017-12-17T17:05:03.017Z,99.90
2017-12-17T17:07:31.304Z,99.90
2017-12-17T17:09:58.865Z,99.90
2017-12-17T17:12:26.420Z,99.90
2017-12-17T17:14:53.951Z,99.90
2017-12-17T17:17:21.505Z,99.90
2017-12-17T17:19:49.031Z,99.90
2017-12-17T17:22:16.592Z,99.90
2017-12-17T17:24:44.144Z,99.90
2017-12-17T17:27:11.721Z,99.90
2017-12-17T17:29:39.258Z,99.90
2017-12-17T17:32:06.796Z,99.90
2017-12-17T17:34:34.353Z,99.90
2017-12-17T17:37:02.649Z,99.90
2017-12-17T17:39:30.204Z,99.90
2017-12-17T17:41:57.737Z,99.90
2017-12-17T17:44:26.053Z,99.90
2017-12-17T17:46:53.585Z,99.90
2017-12-17T17:49:21.153Z,99.90
2017-12-17T17:51:48.672Z,99.90
2017-12-17T17:54:16.215Z,99.90
2017-12-17T17:56:44.504Z,99.90
2017-12-17T17:59:12.805Z,99.90
2017-12-17T18:01:40.379Z,99.90
2017-12-17T18:04:07.913Z,99.90
2017-12-17T18:06:35.461Z,99.90
2017-12-17T18:09:03.754Z,99.90
2017-12-17T18:11:31.327Z,99.90
2017-12-17T18:13:58.850Z,99.90
2017-12-17T18:16:27.158Z,99.90
2017-12-17T18:18:55.486Z,99.90
2017-12-17T18:21:23.051Z,99.90
2017-12-17T18:23:50.581Z,99.90
2017-12-17T18:26:18.126Z,99.90
2017-12-17T18:28:46.416Z,99.90
2017-12-17T18:31:13.969Z,99.90
2017-12-17T18:33:41.488Z,99.90
2017-12-17T18:36:09.010Z,99.90
2017-12-17T18:38:36.557Z,99.90
2017-12-17T18:41:04.119Z,99.90
2017-12-17T18:43:31.695Z,99.90
2017-12-17T18:45:59.234Z,99.90
2017-12-17T18:48:26.776Z,99.90
2017-12-17T18:50:55.082Z,99.90
2017-12-17T18:53:22.638Z,99.90
2017-12-17T18:55:50.195Z,99.90
2017-12-17T18:58:17.752Z,99.90
2017-12-17T19:00:45.301Z,99.90
2017-12-17T19:03:12.845Z,99.90
2017-12-17T19:05:40.400Z,99.90
2017-12-17T19:08:07.949Z,99.90
2017-12-17T19:10:36.261Z,99.90
2017-12-17T19:13:03.797Z,99.90
2017-12-17T19:15:31.340Z,99.90
2017-12-17T19:17:59.682Z,99.90
2017-12-17T19:20:27.228Z,99.90
2017-12-17T19:22:54.773Z,99.90
2017-12-17T19:25:22.365Z,99.90
2017-12-17T19:27:49.926Z,99.90
2017-12-17T19:30:17.490Z,99.90
2017-12-17T19:32:45.058Z,99.90
2017-12-17T19:35:13.385Z,99.90
2017-12-17T19:37:41.496Z,99.90
2017-12-17T19:40:09.042Z,99.90
2017-12-17T19:42:36.616Z,99.90
2017-12-17T19:45:04.144Z,99.90
2017-12-17T19:47:31.696Z,99.90
2017-12-17T19:49:59.266Z,99.90
2017-12-17T19:52:26.846Z,99.90
2017-12-17T19:54:54.413Z,99.90
2017-12-17T19:57:21.958Z,99.90
2017-12-17T19:59:49.499Z,99.90
2017-12-17T20:02:17.049Z,99.90
2017-12-17T20:04:44.574Z,99.90
2017-12-17T20:07:12.124Z,99.90
2017-12-17T20:09:39.672Z,99.90
2017-12-17T20:12:07.997Z,99.90
2017-12-17T20:14:36.857Z,99.90
2017-12-17T20:17:04.393Z,99.90
2017-12-17T20:19:32.728Z,99.90
2017-12-17T20:22:00.261Z,99.90
2017-12-17T20:24:27.825Z,99.90
2017-12-17T20:26:55.373Z,99.90
2017-12-17T20:29:22.922Z,99.90
2017-12-17T20:31:50.475Z,99.90
2017-12-17T20:34:18.034Z,99.90
2017-12-17T20:36:45.634Z,99.90
2017-12-17T20:39:13.259Z,99.90
2017-12-17T20:41:41.574Z,99.90
2017-12-17T20:44:09.140Z,99.90
2017-12-17T20:46:36.676Z,99.90
2017-12-17T20:49:04.205Z,99.90
2017-12-17T20:51:32.561Z,99.90
2017-12-17T20:54:00.108Z,99.90
2017-12-17T20:56:27.652Z,99.90
2017-12-17T20:58:55.196Z,99.90
2017-12-17T21:01:22.739Z,99.90
2017-12-17T21:03:50.265Z,99.90
2017-12-17T21:06:17.812Z,99.90
2017-12-17T21:08:45.358Z,99.90
2017-12-17T21:11:13.000Z,99.90
2017-12-17T21:13:40.528Z,99.90
2017-12-17T21:16:08.862Z,99.90
2017-12-17T21:18:36.402Z,99.90
2017-12-17T21:21:03.953Z,99.90
2017-12-17T21:23:31.502Z,99.90
2017-12-17T21:25:59.089Z,99.90
2017-12-17T21:28:26.659Z,99.90
2017-12-17T21:30:54.218Z,99.90
2017-12-17T21:33:21.771Z,99.90
2017-12-17T21:35:49.316Z,99.90
2017-12-17T21:38:16.876Z,99.90
2017-12-17T21:40:44.412Z,99.90
2017-12-17T21:43:11.970Z,99.90
2017-12-17T21:45:39.541Z,99.90
2017-12-17T21:48:07.068Z,99.90
2017-12-17T21:50:34.609Z,99.90
2017-12-17T21:53:02.153Z,99.90
2017-12-17T21:55:29.709Z,99.90
2017-12-17T21:57:57.266Z,99.90
2017-12-17T22:00:24.802Z,99.90
2017-12-17T22:02:52.405Z,99.90
2017-12-17T22:05:19.929Z,99.90
2017-12-17T22:07:48.346Z,99.90
2017-12-17T22:10:16.684Z,99.90
2017-12-17T22:12:45.011Z,99.90
2017-12-17T22:15:12.536Z,99.90
2017-12-17T22:17:40.078Z,99.90
2017-12-17T22:20:07.618Z,99.90
2017-12-17T22:22:35.932Z,99.90
2017-12-17T22:25:03.498Z,99.90
2017-12-17T22:27:31.053Z,99.90
2017-12-17T22:29:58.593Z,99.90
2017-12-17T22:32:26.156Z,99.90
2017-12-17T22:34:53.740Z,99.90
2017-12-17T22:37:21.304Z,99.90
2017-12-17T22:39:48.852Z,99.90
2017-12-17T22:42:16.401Z,99.90
2017-12-17T22:44:43.934Z,99.90
2017-12-17T22:47:12.252Z,99.90
2017-12-17T22:49:39.780Z,99.90
2017-12-17T22:52:07.368Z,99.90
2017-12-17T22:54:34.913Z,99.90
2017-12-17T22:57:02.558Z,99.90
2017-12-17T22:59:30.116Z,99.90
2017-12-17T23:01:57.640Z,99.90
2017-12-17T23:04:25.194Z,99.90
2017-12-17T23:06:52.741Z,99.90
2017-12-17T23:09:21.924Z,99.90
2017-12-17T23:11:49.450Z,99.90
2017-12-17T23:14:17.857Z,99.90
2017-12-17T23:16:45.381Z,99.90
2017-12-17T23:19:13.718Z,99.90
2017-12-17T23:21:41.249Z,99.90
2017-12-17T23:24:08.794Z,99.90
2017-12-17T23:26:36.353Z,99.90
2017-12-17T23:29:03.918Z,99.90
2017-12-17T23:31:31.457Z,99.90
2017-12-17T23:33:59.025Z,99.90
2017-12-17T23:36:26.577Z,99.90
2017-12-17T23:38:54.157Z,99.90
2017-12-17T23:41:21.693Z,99.90
2017-12-17T23:43:49.260Z,99.90
2017-12-17T23:46:16.813Z,99.90
2017-12-17T23:48:44.343Z,99.90
2017-12-17T23:51:11.896Z,99.90
2017-12-17T23:53:40.180Z,99.90
2017-12-17T23:56:08.509Z,99.90
2017-12-17T23:58:36.029Z,99.90
